| 基因ID | taxid | GeneDate LocusTag | Symbol Synonyms | Symbolfna Fullnamefna | dbXrefs | chromosome maplocation | description | genetype fnastatus | Otherdesignations | Featuretype |
| 111674514 | 7375 | 20220307 | LOC111674514 | 4 | uncharacterized LOC111674514 | protein-coding | uncharacterized protein LOC111674514 | |||
| 111674515 | 7375 | 20220307 | LOC111674515 | 4 | uncharacterized LOC111674515 | protein-coding | uncharacterized protein LOC111674515 | |||
| 111674516 | 7375 | 20220307 | LOC111674516 | 4 | mucin-5AC | protein-coding | ||||
| 111674517 | 7375 | 20220307 | LOC111674517 | 4 | uncharacterized LOC111674517 | protein-coding | uncharacterized protein LOC111674517 | |||
| 111674518 | 7375 | 20220307 | LOC111674518 | 4 | glycogen [starch] synthase | protein-coding | ||||
| 111674519 | 7375 | 20220307 | LOC111674519 | 4 | uncharacterized LOC111674519 | protein-coding | uncharacterized protein LOC111674519 | |||
| 111674520 | 7375 | 20220307 | LOC111674520 | 4 | mitochondrial import receptor subunit TOM40B | protein-coding | ||||
| 111674521 | 7375 | 20220307 | LOC111674521 | 4 | indole-3-acetaldehyde oxidase-like | protein-coding | ||||
| 111674523 | 7375 | 20220307 | LOC111674523 | 4 | uncharacterized LOC111674523 | protein-coding | uncharacterized protein LOC111674523 | |||
| 111674524 | 7375 | 20220307 | LOC111674524 | 4 | putative odorant receptor 85e | protein-coding | ||||
| 111674525 | 7375 | 20220307 | LOC111674525 | 4 | bifunctional purine biosynthesis protein ATIC | protein-coding | bifunctional purine biosynthesis protein ATIC|bifunctional purine biosynthesis protein PURH | |||
| 111674526 | 7375 | 20220307 | LOC111674526 | 4 | indole-3-acetaldehyde oxidase-like | protein-coding | ||||
| 111674527 | 7375 | 20220307 | LOC111674527 | 4 | bromodomain and WD repeat-containing protein 3 | protein-coding | ||||
| 111674528 | 7375 | 20220307 | LOC111674528 | 2 | adipokinetic hormone/corazonin-related peptide receptor variant I | protein-coding | ||||
| 111674529 | 7375 | 20220307 | LOC111674529 | 2 | sodium/potassium-transporting ATPase subunit beta-2 | protein-coding | ||||
| 111674530 | 7375 | 20220307 | LOC111674530 | 2 | protein madd-4 | protein-coding | ||||
| 111674531 | 7375 | 20220307 | LOC111674531 | 2 | cytochrome c1 | protein-coding | ||||
| 111674532 | 7375 | 20220307 | LOC111674532 | 2 | choline/ethanolamine kinase | protein-coding | ||||
| 111674533 | 7375 | 20220307 | LOC111674533 | 2 | cullin-2 | protein-coding | ||||
| 111674534 | 7375 | 20220307 | LOC111674534 | 2 | uncharacterized LOC111674534 | protein-coding | uncharacterized protein LOC111674534 | |||
| 111674535 | 7375 | 20220307 | LOC111674535 | 4 | protein YIF1B-B | protein-coding | ||||
| 111674536 | 7375 | 20220307 | LOC111674536 | 2 | liprin-alpha-1 | protein-coding | ||||
| 111674537 | 7375 | 20220307 | LOC111674537 | 5 | pro-interleukin-16-like | protein-coding | ||||
| 111674538 | 7375 | 20220307 | LOC111674538 | 5 | mucin-5AC | protein-coding | ||||
| 111674539 | 7375 | 20220307 | LOC111674539 | 2 | homer protein homolog 2 | protein-coding | LOW QUALITY PROTEIN: homer protein homolog 2 | |||
| 111674541 | 7375 | 20220307 | LOC111674541 | 2 | adenylate cyclase type 3 | protein-coding | ||||
| 111674542 | 7375 | 20220307 | LOC111674542 | 2 | uncharacterized protein KIAA0513 | protein-coding | ||||
| 111674543 | 7375 | 20220307 | LOC111674543 | 5 | uncharacterized LOC111674543 | protein-coding | uncharacterized protein LOC111674543 | |||
| 111674544 | 7375 | 20220307 | LOC111674544 | 2 | serine/threonine-protein kinase meng-po | protein-coding | serine/threonine-protein kinase meng-po|serine/threonine-protein kinase SBK1 | |||
| 111674545 | 7375 | 20220307 | LOC111674545 | 2 | protein Aatf | protein-coding | ||||
| 111674546 | 7375 | 20220307 | LOC111674546 | 2 | eukaryotic translation elongation factor 2 | protein-coding | eukaryotic translation elongation factor 2|elongation factor 2 | |||
| 111674547 | 7375 | 20220307 | LOC111674547 | 5 | uncharacterized LOC111674547 | protein-coding | uncharacterized protein LOC111674547 | |||
| 111674548 | 7375 | 20220307 | LOC111674548 | 2 | tubulin glycylase 3B | protein-coding | ||||
| 111674549 | 7375 | 20220307 | LOC111674549 | 4 | ATP-binding cassette sub-family G member 8 | protein-coding | ||||
| 111674550 | 7375 | 20220307 | LOC111674550 | 4 | cytidine deaminase-like | protein-coding | ||||
| 111674551 | 7375 | 20220307 | LOC111674551 | 2 | E3 ubiquitin-protein ligase lubel | protein-coding | ||||
| 111674552 | 7375 | 20220307 | LOC111674552 | 2 | tubulin glycylase 3A | protein-coding | ||||
| 111674553 | 7375 | 20220307 | LOC111674553 | 2 | UDP-N-acetylhexosamine pyrophosphorylase | protein-coding | ||||
| 111674554 | 7375 | 20220307 | LOC111674554 | 2 | protein transport protein Sec61 subunit alpha | protein-coding | ||||
| 111674555 | 7375 | 20220307 | LOC111674555 | 4 | ATP-binding cassette sub-family G member 5 | protein-coding | ||||
| 111674556 | 7375 | 20220307 | LOC111674556 | 2 | sodium/potassium-transporting ATPase subunit beta-1 | protein-coding | ||||
| 111674557 | 7375 | 20220307 | LOC111674557 | 2 | cartilage oligomeric matrix protein | protein-coding | ||||
| 111674558 | 7375 | 20220307 | LOC111674558 | 2 | transmembrane protein 115 | protein-coding | ||||
| 111674559 | 7375 | 20220307 | LOC111674559 | 2 | E3 ubiquitin-protein ligase Hakai | protein-coding | ||||
| 111674560 | 7375 | 20220307 | Trnal-uag | 2 | transfer RNA leucine (anticodon UAG) | tRNA | ||||
| 111674561 | 7375 | 20220307 | LOC111674561 | 4 | keratin, type II cytoskeletal 1-like | protein-coding | glycine, alanine and asparagine-rich protein-like|keratin, type II cytoskeletal 1-like|uncharacterized protein LOC111674561 | |||
| 111674563 | 7375 | 20220307 | LOC111674563 | 4 | uncharacterized LOC111674563 | protein-coding | uncharacterized protein LOC111674563 | |||
| 111674564 | 7375 | 20220307 | LOC111674564 | 4 | uncharacterized PPE family protein PPE62-like | protein-coding | ||||
| 111674565 | 7375 | 20220307 | LOC111674565 | 4 | neuroendocrine convertase 2 | protein-coding | neuroendocrine convertase 2|PC2-like prohormone convertase | |||
| 111674566 | 7375 | 20220307 | LOC111674566 | 4 | larval cuticle protein A2B-like | protein-coding |
| 维奥蛋白资源库 - 中文蛋白资源 CopyRight © 2010-2026 |